KSTS/STS METAR and TAF weather

Enter ICAO airport designator
Station Type Date Time Source
KSTS METAR 2019/10/14 06:32 UTC NOAA

KSTS 140632Z AUTO 00000KT 10SM FEW004 08/07 A2990 RMK AO2 T00780067


Station Type Date Time Source
KSTS Decoded METAR 2019/10/14 06:32 UTC NOAA

SANTA ROSA SONOMA COUNTY, CA, United States (KSTS) 38-30N 122-49W 39M
Oct 14, 2019 - 02:32 AM EDT / 2019.10.14 0632 UTC
Wind: Calm:0
Visibility: 10 mile(s):0
Sky conditions: mostly clear
Temperature: 46.0 F (7.8 C)
Dew Point: 44.1 F (6.7 C)
Relative Humidity: 92%
Pressure (altimeter): 29.9 in. Hg (1012 hPa)
ob: KSTS 140632Z AUTO 00000KT 10SM FEW004 08/07 A2990 RMK AO2 T00780067
cycle: 6

Station Type Date Time Source
KSTS TAF 2019/10/14 06:30 UTC NOAA

TAF KSTS 140526Z 1406/1506 00000KT P6SM SKC
TEMPO 1412/1416 BKN010
FM142100 18006KT P6SM SKC
FM150400 00000KT P6SM SKC

Example: see airport list